Time;durP1;ratioP1;P1;durP2;ratioP2;P2;SDS_P1;SDS_P2;PMS_P1;PMS_P2;Temp;Humidity;BMP_temperature;BMP_pressure;BME280_temperature;BME280_humidity;BME280_pressure;Samples;Min_cycle;Max_cycle;Signal;HPM_P1;HPM_P2
2024/04/19 00:04:31;;;;;;;1.42;0.65;;;;;;;6.34;98.71;100681.13;6578537;21;20247;-69
2024/04/19 00:07:02;;;;;;;0.90;0.80;;;;;;;6.26;99.01;100675.81;6578650;21;20576;-70
2024/04/19 00:09:50;;;;;;;1.10;0.90;;;;;;;6.29;99.21;100670.94;6578442;21;20232;-70
2024/04/19 00:12:20;;;;;;;2.05;0.70;;;;;;;6.25;99.12;100674.97;6579173;21;20239;-70
2024/04/19 00:14:56;;;;;;;1.10;0.77;;;;;;;6.19;99.62;100672.19;6583499;21;20224;-70
2024/04/19 00:17:26;;;;;;;0.80;0.60;;;;;;;6.14;99.45;100670.03;6581677;21;20272;-68
2024/04/19 00:20:02;;;;;;;1.40;0.82;;;;;;;5.98;100.00;100678.19;6584919;21;20232;-70
2024/04/19 00:22:32;;;;;;;2.67;0.70;;;;;;;6.01;100.00;100669.75;6582690;21;20251;-70
2024/04/19 00:25:05;;;;;;;0.90;0.60;;;;;;;6.09;100.00;100658.97;6578564;21;20275;-70
2024/04/19 00:27:34;;;;;;;5.57;1.25;;;;;;;6.27;100.00;100662.19;6578644;21;20281;-70
2024/04/19 00:30:11;;;;;;;2.20;1.30;;;;;;;6.30;100.00;100656.44;6623338;21;20606;-71
2024/04/19 00:32:41;;;;;;;1.10;0.80;;;;;;;6.12;100.00;100653.22;6579260;21;20227;-70
2024/04/19 00:35:19;;;;;;;1.05;0.80;;;;;;;6.09;100.00;100653.59;6581815;21;20584;-71
2024/04/19 00:37:55;;;;;;;1.30;0.50;;;;;;;6.11;100.00;100651.56;6585466;21;20215;-70
2024/04/19 00:40:31;;;;;;;3.85;1.35;;;;;;;6.15;100.00;100646.69;6580314;21;20366;-69
2024/04/19 00:43:04;;;;;;;1.42;1.15;;;;;;;6.00;100.00;100643.94;6581218;21;20228;-69
2024/04/19 00:49:43;;;;;;;1.35;1.25;;;;;;;6.23;100.00;100641.25;6583933;21;20274;-70
2024/04/19 00:52:16;;;;;;;1.67;1.10;;;;;;;6.35;100.00;100635.25;6577765;21;20575;-70
2024/04/19 00:54:59;;;;;;;0.90;0.60;;;;;;;6.39;100.00;100638.44;6580626;21;20538;-70
2024/04/19 00:57:29;;;;;;;0.90;0.75;;;;;;;6.36;99.92;100642.28;6581153;21;20583;-71
2024/04/19 01:00:02;;;;;;;1.05;0.73;;;;;;;6.44;100.00;100622.56;6578426;21;20326;-69
2024/04/19 01:02:32;;;;;;;1.15;0.80;;;;;;;6.44;99.17;100620.72;6578484;21;20278;-70
2024/04/19 01:05:31;;;;;;;1.10;0.70;;;;;;;6.48;98.87;100622.03;6580825;21;20220;-70
2024/04/19 01:08:26;;;;;;;1.00;0.60;;;;;;;6.45;98.41;100622.38;6580207;21;20683;-70
2024/04/19 01:10:59;;;;;;;1.55;1.42;;;;;;;6.46;98.83;100615.16;6577841;21;20341;-71
2024/04/19 01:13:36;;;;;;;1.00;0.70;;;;;;;6.40;99.82;100610.50;6577938;21;20232;-69
2024/04/19 01:16:07;;;;;;;2.30;1.80;;;;;;;6.49;99.36;100604.88;6578158;21;20224;-69
2024/04/19 01:18:54;;;;;;;1.00;0.80;;;;;;;6.46;98.60;100601.72;6578316;21;20279;-70
2024/04/19 01:21:27;;;;;;;0.80;0.50;;;;;;;6.43;99.51;100600.25;6580000;21;20295;-70
2024/04/19 01:24:08;;;;;;;0.98;0.88;;;;;;;6.38;100.00;100591.91;6577986;21;20266;-70
2024/04/19 01:26:44;;;;;;;1.10;0.75;;;;;;;6.43;99.90;100597.56;6577456;21;20338;-70
2024/04/19 01:29:17;;;;;;;0.90;0.50;;;;;;;6.49;99.36;100587.91;6577792;21;20644;-71
2024/04/19 01:31:52;;;;;;;1.60;0.77;;;;;;;6.30;99.69;100581.19;6577840;21;20731;-69
2024/04/19 01:34:24;;;;;;;0.88;0.65;;;;;;;6.35;99.18;100577.97;6581736;21;20235;-70
2024/04/19 01:36:55;;;;;;;1.25;0.95;;;;;;;6.25;99.97;100575.53;6578054;21;20284;-70
2024/04/19 01:39:31;;;;;;;1.52;1.40;;;;;;;6.27;99.70;100570.81;6577112;21;20228;-70
2024/04/19 01:42:12;;;;;;;1.00;0.90;;;;;;;6.14;100.00;100565.25;6576687;21;20236;-70
2024/04/19 01:44:42;;;;;;;1.75;1.58;;;;;;;6.07;100.00;100557.06;6579404;21;20224;-70
2024/04/19 01:47:15;;;;;;;1.98;1.88;;;;;;;5.98;100.00;100550.09;6581204;21;20224;-71
2024/04/19 01:49:45;;;;;;;1.00;0.80;;;;;;;5.91;100.00;100553.66;6579865;21;20228;-70
2024/04/19 01:52:18;;;;;;;2.38;0.98;;;;;;;5.84;100.00;100541.97;6582184;21;20299;-70
2024/04/19 01:54:48;;;;;;;1.92;1.13;;;;;;;5.81;100.00;100545.03;6580068;21;20267;-70
2024/04/19 01:57:27;;;;;;;1.52;1.15;;;;;;;5.79;100.00;100544.34;6580276;21;20232;-71
2024/04/19 02:00:00;;;;;;;2.55;1.20;;;;;;;5.74;100.00;100538.69;6582406;21;20254;-70
2024/04/19 02:02:43;;;;;;;1.10;0.93;;;;;;;5.66;100.00;100532.34;6582367;21;20624;-69
2024/04/19 02:05:14;;;;;;;0.90;0.70;;;;;;;5.58;100.00;100524.34;6579685;21;20232;-70
2024/04/19 02:07:49;;;;;;;1.00;0.73;;;;;;;5.54;100.00;100520.38;6589420;21;20601;-69
2024/04/19 02:10:19;;;;;;;1.23;1.05;;;;;;;5.50;100.00;100518.22;6585572;21;20219;-68
2024/04/19 02:12:54;;;;;;;0.88;0.60;;;;;;;5.46;100.00;100511.53;6585927;21;20236;-70
2024/04/19 02:15:24;;;;;;;0.93;0.60;;;;;;;5.47;100.00;100508.66;6585720;21;20295;-69
2024/04/19 02:17:57;;;;;;;0.90;0.50;;;;;;;5.47;100.00;100497.13;6589761;21;20224;-70
2024/04/19 02:20:27;;;;;;;0.95;0.70;;;;;;;5.52;100.00;100492.88;6585469;21;20220;-70
2024/04/19 02:22:59;;;;;;;1.15;1.05;;;;;;;5.56;100.00;100499.56;6585454;21;20228;-71
2024/04/19 02:27:17;;;;;;;1.40;1.20;;;;;;;5.56;100.00;100491.50;6587518;21;20284;-69
2024/04/19 02:32:44;;;;;;;1.13;0.88;;;;;;;5.67;100.00;100474.97;6579656;21;20244;-70
2024/04/19 02:35:18;;;;;;;1.00;0.85;;;;;;;5.69;100.00;100478.31;6579995;21;20228;-70
2024/04/19 02:37:55;;;;;;;1.25;0.95;;;;;;;5.73;100.00;100469.88;6579975;21;20546;-71
2024/04/19 02:40:29;;;;;;;1.20;0.65;;;;;;;5.68;100.00;100465.06;6579694;21;20274;-70
2024/04/19 02:43:02;;;;;;;1.20;0.90;;;;;;;5.81;100.00;100456.41;6580664;21;20310;-70
2024/04/19 02:45:42;;;;;;;1.23;0.98;;;;;;;5.73;100.00;100449.25;6579772;21;20232;-69
2024/04/19 02:48:30;;;;;;;0.98;0.80;;;;;;;5.78;100.00;100449.53;6579973;21;20735;-70
2024/04/19 02:51:06;;;;;;;0.93;0.65;;;;;;;5.77;100.00;100444.34;6580527;21;20240;-70
2024/04/19 02:53:40;;;;;;;1.25;0.60;;;;;;;5.76;100.00;100437.31;6581844;21;20217;-69
2024/04/19 02:56:13;;;;;;;1.00;0.80;;;;;;;5.81;100.00;100426.88;6579364;21;20268;-71
2024/04/19 02:58:45;;;;;;;0.90;0.70;;;;;;;5.84;100.00;100426.50;6579443;21;20220;-70
2024/04/19 03:01:23;;;;;;;1.95;1.02;;;;;;;5.79;100.00;100415.47;6579863;21;20240;-69
2024/04/19 03:03:57;;;;;;;1.38;0.80;;;;;;;5.85;100.00;100414.75;6579266;21;20270;-69
2024/04/19 03:06:32;;;;;;;0.90;0.60;;;;;;;5.87;100.00;100407.34;6579273;21;20279;-68
2024/04/19 03:09:08;;;;;;;1.13;0.95;;;;;;;5.91;100.00;100408.66;6579372;21;20734;-70
2024/04/19 03:11:55;;;;;;;1.27;0.82;;;;;;;5.92;100.00;100402.25;6579785;21;20233;-70
2024/04/19 03:14:29;;;;;;;3.35;1.85;;;;;;;5.84;100.00;100402.34;6536851;21;20219;-71
2024/04/19 03:17:09;;;;;;;1.10;0.82;;;;;;;5.88;100.00;100390.22;6580152;21;20267;-70
2024/04/19 03:19:45;;;;;;;0.90;0.70;;;;;;;5.99;100.00;100387.09;6582060;21;20291;-68
2024/04/19 03:22:23;;;;;;;0.80;0.50;;;;;;;5.99;100.00;100396.00;6581502;21;20235;-70
2024/04/19 03:25:09;;;;;;;1.67;1.20;;;;;;;5.89;100.00;100384.69;6579400;21;20528;-70
2024/04/19 03:27:45;;;;;;;1.80;1.08;;;;;;;5.94;100.00;100376.06;6579090;21;20236;-70
2024/04/19 03:30:29;;;;;;;1.10;0.82;;;;;;;6.00;100.00;100376.16;6578740;21;20701;-70
2024/04/19 03:33:05;;;;;;;0.90;0.60;;;;;;;5.95;100.00;100373.22;6578693;21;20255;-69
2024/04/19 03:35:46;;;;;;;0.80;0.52;;;;;;;6.07;100.00;100371.72;6581817;21;20280;-68
2024/04/19 03:38:21;;;;;;;1.65;1.02;;;;;;;6.10;99.01;100365.13;6578700;21;20227;-69
2024/04/19 03:41:01;;;;;;;0.80;0.60;;;;;;;6.24;97.29;100364.31;6578746;21;20592;-70
2024/04/19 03:45:40;;;;;;;0.90;0.70;;;;;;;6.35;95.71;100363.81;6578334;21;20232;-69
2024/04/19 03:46:33;;;;;;;0.80;0.50;;;;;;;6.39;94.60;100358.91;6578496;21;20232;-69
2024/04/19 03:49:18;;;;;;;1.45;1.05;;;;;;;6.33;94.14;100347.06;6578618;21;20283;-69
2024/04/19 03:51:51;;;;;;;0.90;0.60;;;;;;;6.31;94.36;100345.56;6578361;21;20325;-70
2024/04/19 03:54:24;;;;;;;1.00;0.50;;;;;;;6.41;93.42;100340.72;6578788;21;20262;-70
2024/04/19 03:56:57;;;;;;;1.10;0.80;;;;;;;6.44;92.82;100334.97;6578438;21;20325;-70
2024/04/19 03:59:32;;;;;;;0.80;0.50;;;;;;;6.47;92.86;100330.06;6578656;21;20534;-70
2024/04/19 04:05:09;;;;;;;0.90;0.63;;;;;;;6.58;92.96;100325.22;6580816;21;20309;-70
2024/04/19 04:07:53;;;;;;;1.27;1.00;;;;;;;6.50;92.99;100327.00;6578383;21;20228;-70
2024/04/19 04:10:27;;;;;;;1.23;0.80;;;;;;;6.61;93.99;100325.66;6577666;21;20326;-70
2024/04/19 04:15:47;;;;;;;1.70;0.65;;;;;;;6.65;93.10;100309.97;6578345;21;20259;-68
2024/04/19 04:18:21;;;;;;;0.80;0.60;;;;;;;6.60;93.11;100307.03;6578410;21;20329;-68
2024/04/19 04:20:59;;;;;;;1.10;0.65;;;;;;;6.64;92.68;100311.00;6578135;21;20548;-69
2024/04/19 04:23:33;;;;;;;0.82;0.57;;;;;;;6.73;92.68;100301.81;6578413;21;20228;-71
2024/04/19 04:26:07;;;;;;;1.15;1.00;;;;;;;6.98;90.79;100311.13;6580609;21;20298;-71
2024/04/19 04:28:40;;;;;;;0.88;0.55;;;;;;;6.90;90.93;100303.22;6580434;21;20542;-69
2024/04/19 04:31:13;;;;;;;0.88;0.60;;;;;;;6.95;90.84;100304.31;6577713;21;20551;-70
2024/04/19 04:33:43;;;;;;;2.00;1.20;;;;;;;6.89;91.38;100296.16;6578308;21;20228;-69
2024/04/19 04:36:21;;;;;;;0.90;0.60;;;;;;;6.86;92.33;100305.47;6578044;21;20232;-71
2024/04/19 04:38:59;;;;;;;1.75;0.90;;;;;;;7.00;92.15;100292.97;6578179;21;20283;-69
2024/04/19 04:41:31;;;;;;;1.67;1.00;;;;;;;6.96;91.78;100297.06;6578610;21;20232;-69
2024/04/19 04:44:03;;;;;;;2.13;0.85;;;;;;;7.03;91.42;100286.34;6581616;21;20334;-70
2024/04/19 04:46:35;;;;;;;1.00;0.75;;;;;;;7.07;91.50;100277.69;6582146;21;20718;-70
2024/04/19 04:49:10;;;;;;;1.00;0.65;;;;;;;7.02;91.77;100280.13;6579180;21;20268;-70
2024/04/19 04:51:47;;;;;;;1.52;1.38;;;;;;;7.15;90.81;100274.03;6580184;21;20272;-68
2024/04/19 04:54:20;;;;;;;0.90;0.60;;;;;;;7.11;90.01;100268.22;6580041;21;20220;-71
2024/04/19 04:56:53;;;;;;;0.90;0.70;;;;;;;7.19;89.47;100259.16;6577968;21;20228;-71
2024/04/19 04:59:29;;;;;;;1.80;1.63;;;;;;;7.24;88.96;100257.56;6580749;21;20513;-70
2024/04/19 05:02:03;;;;;;;0.95;0.55;;;;;;;7.13;89.74;100250.00;6579488;21;20236;-70
2024/04/19 05:04:36;;;;;;;1.30;1.20;;;;;;;7.27;89.57;100249.09;6579942;21;20325;-70
2024/04/19 05:07:11;;;;;;;1.85;1.20;;;;;;;7.38;88.44;100253.94;6579483;21;20270;-70
2024/04/19 05:09:46;;;;;;;2.55;1.25;;;;;;;7.38;88.17;100243.16;6579067;21;20227;-69
2024/04/19 05:12:23;;;;;;;1.17;0.70;;;;;;;7.49;88.05;100238.25;6578327;21;20322;-69
2024/04/19 05:14:59;;;;;;;3.08;1.23;;;;;;;7.60;87.58;100237.72;6580541;21;20220;-71
2024/04/19 05:17:32;;;;;;;1.00;0.70;;;;;;;7.78;86.88;100230.75;6578385;21;20270;-70
2024/04/19 05:20:06;;;;;;;1.60;0.88;;;;;;;7.77;87.04;100220.19;6578331;21;20333;-72
2024/04/19 05:22:40;;;;;;;1.50;1.40;;;;;;;7.87;86.61;100220.63;6578824;21;20731;-71
2024/04/19 05:25:13;;;;;;;1.83;1.73;;;;;;;7.85;87.13;100215.44;6579956;21;20224;-70
2024/04/19 05:27:44;;;;;;;5.47;1.17;;;;;;;7.99;86.66;100219.00;6579342;21;20303;-71
2024/04/19 05:30:20;;;;;;;1.65;1.45;;;;;;;8.01;85.72;100208.88;6577735;21;20256;-70
2024/04/19 05:32:52;;;;;;;1.38;0.98;;;;;;;8.11;85.30;100195.84;6581369;21;20220;-69
2024/04/19 05:35:23;;;;;;;2.45;1.33;;;;;;;7.99;84.93;100192.06;6583052;21;20563;-71
2024/04/19 05:37:59;;;;;;;2.38;0.90;;;;;;;8.09;85.90;100192.53;6585082;21;20224;-71
2024/04/19 05:40:34;;;;;;;4.25;1.40;;;;;;;8.13;85.47;100188.38;6582144;21;20279;-71
2024/04/19 05:43:06;;;;;;;1.40;0.70;;;;;;;8.13;85.90;100187.56;6582232;21;20224;-69
2024/04/19 05:45:38;;;;;;;1.42;1.20;;;;;;;8.19;86.27;100171.41;6582765;21;20275;-69
2024/04/19 05:48:13;;;;;;;8.88;1.42;;;;;;;8.27;85.99;100168.53;6581404;21;20228;-69
2024/04/19 05:50:52;;;;;;;0.90;0.70;;;;;;;8.28;85.38;100164.78;6580903;21;20236;-70
2024/04/19 05:53:27;;;;;;;3.40;1.40;;;;;;;8.21;86.91;100157.72;6581238;21;20224;-70
2024/04/19 05:56:00;;;;;;;1.48;1.05;;;;;;;7.84;89.23;100156.41;6581462;21;20292;-69
2024/04/19 05:58:33;;;;;;;1.17;1.08;;;;;;;7.80;91.73;100138.97;6581946;21;20228;-69
2024/04/19 06:01:05;;;;;;;1.88;1.33;;;;;;;7.88;91.27;100143.34;6580716;21;20407;-71
2024/04/19 06:03:41;;;;;;;2.33;0.95;;;;;;;7.97;92.32;100151.03;6580905;21;20274;-71
2024/04/19 06:06:15;;;;;;;1.27;0.93;;;;;;;8.00;94.23;100156.03;6577168;21;20275;-71
2024/04/19 06:08:50;;;;;;;1.10;0.80;;;;;;;7.76;94.79;100143.09;6580865;21;20220;-68
2024/04/19 06:11:22;;;;;;;3.67;2.20;;;;;;;7.82;96.66;100147.69;6580987;21;20240;-70
2024/04/19 06:13:57;;;;;;;1.05;0.90;;;;;;;7.68;97.36;100154.06;6578881;21;20263;-71
2024/04/19 06:16:29;;;;;;;1.25;0.85;;;;;;;7.78;97.26;100143.75;6579951;21;20262;-70
2024/04/19 06:19:01;;;;;;;1.95;1.33;;;;;;;7.80;97.15;100141.66;6580532;21;20288;-71
2024/04/19 06:21:34;;;;;;;1.98;1.38;;;;;;;7.84;97.14;100134.84;6577771;21;20586;-69
2024/04/19 06:24:10;;;;;;;1.50;1.40;;;;;;;7.84;96.66;100119.50;6576881;21;20291;-71
2024/04/19 06:26:46;;;;;;;2.03;1.15;;;;;;;7.76;94.68;100124.25;6578110;21;20220;-72
2024/04/19 06:29:19;;;;;;;1.35;1.15;;;;;;;7.70;95.60;100120.50;6577829;21;20224;-72
2024/04/19 06:31:51;;;;;;;1.83;1.65;;;;;;;7.57;93.57;100106.16;6580467;21;20232;-73
2024/04/19 06:34:26;;;;;;;5.25;1.70;;;;;;;7.49;95.10;100111.72;6579374;21;20228;-71
2024/04/19 06:37:02;;;;;;;1.70;1.30;;;;;;;7.42;96.07;100101.75;6581972;21;20228;-71
2024/04/19 06:39:41;;;;;;;1.17;0.98;;;;;;;7.43;94.83;100099.91;6579895;21;20220;-70
2024/04/19 06:42:32;;;;;;;1.65;1.45;;;;;;;7.23;94.20;100094.44;6579750;21;20236;-71
2024/04/19 06:45:07;;;;;;;3.60;1.15;;;;;;;7.21;95.92;100091.09;6579283;21;20229;-71
2024/04/19 06:47:48;;;;;;;1.00;0.88;;;;;;;7.18;95.30;100078.06;6582431;21;20220;-73
2024/04/19 06:50:24;;;;;;;2.88;2.53;;;;;;;7.15;94.98;100075.78;6579667;21;20630;-70
2024/04/19 06:52:57;;;;;;;1.10;0.93;;;;;;;7.11;96.66;100071.81;6582570;21;20219;-71
2024/04/19 06:55:36;;;;;;;1.67;1.48;;;;;;;6.89;97.45;100064.84;6579619;21;20224;-69
2024/04/19 06:58:10;;;;;;;1.73;1.00;;;;;;;7.15;98.52;100065.00;6578825;21;20295;-71
2024/04/19 07:00:43;;;;;;;1.80;0.95;;;;;;;7.19;96.08;100054.66;6580878;21;20261;-71
2024/04/19 07:03:36;;;;;;;1.70;1.15;;;;;;;7.12;96.79;100054.63;6579375;21;20267;-70
2024/04/19 07:06:13;;;;;;;1.00;0.73;;;;;;;7.14;96.03;100051.75;6579201;21;20334;-71
2024/04/19 07:09:00;;;;;;;1.25;0.82;;;;;;;6.85;96.18;100052.84;6579959;21;20233;-70
2024/04/19 07:11:37;;;;;;;1.70;1.15;;;;;;;6.86;98.11;100041.06;6578607;21;20574;-69
2024/04/19 07:14:10;;;;;;;1.10;0.90;;;;;;;6.95;99.35;100047.94;6577322;21;20231;-70
2024/04/19 07:16:47;;;;;;;1.25;1.15;;;;;;;6.84;99.71;100041.25;6579358;21;20232;-70
2024/04/19 07:19:20;;;;;;;2.10;0.88;;;;;;;6.55;98.66;100034.25;6579057;21;20280;-70
2024/04/19 07:21:55;;;;;;;1.10;0.90;;;;;;;6.59;100.00;100036.53;6580698;21;20295;-72
2024/04/19 07:24:28;;;;;;;1.40;1.10;;;;;;;6.64;100.00;100020.66;6579006;21;20220;-72
2024/04/19 07:27:03;;;;;;;4.10;1.48;;;;;;;6.90;100.00;100012.75;6578558;21;20262;-68
2024/04/19 07:29:35;;;;;;;1.42;1.05;;;;;;;6.91;100.00;100009.03;6580842;21;20231;-69
2024/04/19 07:32:08;;;;;;;2.20;2.00;;;;;;;7.25;100.00;99995.50;6578785;21;20266;-70
2024/04/19 07:34:42;;;;;;;1.30;1.20;;;;;;;7.58;100.00;99994.75;6578147;21;20329;-71
2024/04/19 07:37:15;;;;;;;3.75;2.05;;;;;;;7.69;94.01;99983.38;6580366;21;20228;-70
2024/04/19 07:39:47;;;;;;;1.20;0.80;;;;;;;8.03;92.32;99979.66;6577972;21;20228;-72
2024/04/19 07:42:32;;;;;;;2.30;1.60;;;;;;;8.02;91.30;99984.22;6578145;21;20236;-70
2024/04/19 07:45:08;;;;;;;5.95;1.42;;;;;;;8.21;91.51;99963.69;6578184;21;20223;-70
2024/04/19 07:47:40;;;;;;;2.78;1.45;;;;;;;8.43;91.65;99966.97;6577880;21;20322;-70
2024/04/19 07:50:14;;;;;;;2.17;1.80;;;;;;;8.17;89.32;99955.19;6578232;21;20220;-69
2024/04/19 07:52:47;;;;;;;1.63;1.52;;;;;;;8.03;92.11;99960.81;6580668;21;20228;-70
2024/04/19 07:55:20;;;;;;;2.05;1.55;;;;;;;7.99;90.79;99954.97;6578490;21;20267;-70
2024/04/19 07:57:54;;;;;;;4.03;2.22;;;;;;;7.74;93.50;99946.72;6578313;21;20219;-69
2024/04/19 08:00:26;;;;;;;3.08;1.80;;;;;;;7.74;92.55;99951.28;6578228;21;20246;-70
2024/04/19 08:03:01;;;;;;;1.92;1.10;;;;;;;7.47;93.11;99945.03;6578497;21;20232;-70
2024/04/19 08:05:35;;;;;;;2.70;1.40;;;;;;;7.14;93.96;99939.59;6578742;21;20227;-70
2024/04/19 08:08:08;;;;;;;2.75;1.70;;;;;;;7.21;94.70;99924.25;6581050;21;20220;-70
2024/04/19 08:10:42;;;;;;;1.65;0.95;;;;;;;7.18;95.36;99926.53;6577740;21;20240;-70
2024/04/19 08:13:17;;;;;;;1.33;1.13;;;;;;;7.17;95.99;99923.03;6578340;21;20258;-69
2024/04/19 08:15:49;;;;;;;2.53;2.38;;;;;;;7.34;96.51;99916.22;6578126;21;20272;-69
2024/04/19 08:18:21;;;;;;;1.63;0.88;;;;;;;7.18;96.50;99907.72;6579327;21;20228;-69
2024/04/19 08:20:53;;;;;;;3.97;2.05;;;;;;;7.18;97.28;99897.78;6578642;21;20288;-68
2024/04/19 08:23:26;;;;;;;1.05;0.95;;;;;;;7.36;97.28;99900.69;6578067;21;20263;-71
2024/04/19 08:25:58;;;;;;;2.03;1.55;;;;;;;7.40;97.11;99890.38;6578254;21;20314;-71
2024/04/19 08:28:37;;;;;;;1.33;1.00;;;;;;;7.47;96.14;99887.66;6580674;21;20224;-69
2024/04/19 08:31:10;;;;;;;2.05;1.40;;;;;;;7.63;96.37;99881.88;6577960;21;20256;-71
2024/04/19 08:33:42;;;;;;;2.10;1.60;;;;;;;7.58;97.85;99876.28;6578845;21;20329;-72
2024/04/19 08:36:15;;;;;;;2.58;1.77;;;;;;;7.49;99.02;99872.16;6578520;21;20232;-71
2024/04/19 08:38:48;;;;;;;1.40;1.30;;;;;;;7.38;98.56;99860.97;6577893;21;20236;-70
2024/04/19 08:41:28;;;;;;;1.90;1.80;;;;;;;7.58;97.79;99860.97;6576279;21;20251;-71
2024/04/19 08:44:12;;;;;;;1.38;1.10;;;;;;;7.65;97.55;99856.38;6580427;21;20228;-68
2024/04/19 08:46:46;;;;;;;2.10;1.50;;;;;;;7.59;98.24;99859.09;6577551;21;20333;-70
2024/04/19 08:49:19;;;;;;;1.00;0.85;;;;;;;7.66;98.66;99851.84;6578700;21;20258;-71
2024/04/19 08:51:54;;;;;;;5.18;2.00;;;;;;;7.74;96.58;99844.38;6577550;21;20632;-69
2024/04/19 08:54:49;;;;;;;6.30;2.05;;;;;;;7.66;96.58;99846.44;6577435;21;20586;-69
2024/04/19 08:57:26;;;;;;;1.40;0.80;;;;;;;7.74;97.78;99832.78;6579237;21;20330;-70
2024/04/19 09:00:04;;;;;;;2.25;1.60;;;;;;;7.83;98.25;99826.13;6579861;21;20216;-69
2024/04/19 09:02:47;;;;;;;2.53;1.42;;;;;;;7.96;99.03;99826.09;6577189;21;20338;-70
2024/04/19 09:05:21;;;;;;;2.60;1.65;;;;;;;7.95;98.71;99819.06;6576984;21;20315;-71
2024/04/19 09:07:56;;;;;;;1.67;1.20;;;;;;;8.10;97.39;99822.34;6576516;21;20280;-69
2024/04/19 09:10:29;;;;;;;5.88;2.58;;;;;;;7.90;96.84;99804.56;6576855;21;20568;-70
2024/04/19 09:13:07;;;;;;;1.73;1.50;;;;;;;7.87;97.93;99811.22;6577258;21;20329;-69
2024/04/19 09:15:44;;;;;;;2.25;1.77;;;;;;;8.01;97.59;99802.06;6576290;21;20223;-71
2024/04/19 09:18:17;;;;;;;2.70;1.35;;;;;;;7.83;98.06;99796.50;6577288;21;20255;-70
2024/04/19 09:20:50;;;;;;;2.35;1.55;;;;;;;7.99;99.17;99796.03;6575495;21;20735;-71
2024/04/19 09:23:28;;;;;;;1.75;1.08;;;;;;;8.09;99.32;99800.97;6577263;21;20586;-71
2024/04/19 09:26:02;;;;;;;2.90;2.05;;;;;;;8.08;99.06;99796.66;6575921;21;20220;-70
2024/04/19 09:28:36;;;;;;;2.20;1.20;;;;;;;7.97;100.00;99784.66;6575584;21;20321;-70
2024/04/19 09:31:09;;;;;;;3.10;2.70;;;;;;;8.07;100.00;99781.53;6577956;21;20243;-71
2024/04/19 09:33:41;;;;;;;2.97;1.10;;;;;;;8.11;100.00;99780.88;6577597;21;20224;-71
2024/04/19 09:36:21;;;;;;;3.58;3.17;;;;;;;8.40;100.00;99767.94;6576962;21;20232;-69
2024/04/19 09:38:56;;;;;;;1.98;1.63;;;;;;;8.25;100.00;99771.69;6577267;21;20224;-72
2024/04/19 09:41:29;;;;;;;3.22;1.88;;;;;;;8.29;100.00;99772.94;6574817;21;20356;-71
2024/04/19 09:44:04;;;;;;;8.10;1.60;;;;;;;8.26;100.00;99765.28;6577134;21;20225;-70
2024/04/19 09:46:52;;;;;;;4.78;1.45;;;;;;;8.21;100.00;99765.09;6577114;21;20345;-71
2024/04/19 09:49:26;;;;;;;1.90;1.75;;;;;;;8.17;100.00;99760.34;6576762;21;20610;-71
2024/04/19 09:51:58;;;;;;;2.78;1.42;;;;;;;8.09;100.00;99764.09;6576970;21;20643;-69
2024/04/19 09:54:37;;;;;;;1.92;1.83;;;;;;;8.16;100.00;99751.44;6576795;21;20659;-70
2024/04/19 09:57:12;;;;;;;1.50;1.40;;;;;;;8.22;100.00;99755.13;6576932;21;20228;-71
2024/04/19 09:59:46;;;;;;;3.65;1.80;;;;;;;8.22;100.00;99750.56;6575800;21;20727;-72
2024/04/19 10:02:26;;;;;;;2.25;1.60;;;;;;;8.25;100.00;99739.34;6576950;21;20240;-70
2024/04/19 10:05:09;;;;;;;1.85;1.48;;;;;;;8.36;100.00;99750.53;6576955;21;20224;-71
2024/04/19 10:07:46;;;;;;;5.40;1.33;;;;;;;8.03;100.00;99731.81;6577360;21;20227;-70
2024/04/19 10:10:19;;;;;;;1.38;1.10;;;;;;;8.04;100.00;99726.19;6578805;21;20680;-68
2024/04/19 10:12:52;;;;;;;2.63;2.42;;;;;;;8.08;100.00;99726.59;6579467;21;20278;-71
2024/04/19 10:15:26;;;;;;;1.77;1.38;;;;;;;7.92;100.00;99719.81;6578947;21;20260;-71
2024/04/19 10:18:06;;;;;;;3.63;1.60;;;;;;;7.71;100.00;99720.94;6581797;21;20632;-71
2024/04/19 10:20:43;;;;;;;2.30;1.25;;;;;;;7.62;100.00;99713.28;6579348;21;20633;-71
2024/04/19 10:23:16;;;;;;;1.17;0.70;;;;;;;7.52;100.00;99726.34;6579380;21;20242;-71
2024/04/19 10:25:49;;;;;;;1.70;1.38;;;;;;;7.57;100.00;99719.31;6579480;21;20224;-71
2024/04/19 10:28:24;;;;;;;5.20;1.83;;;;;;;7.56;100.00;99717.66;6579223;21;20224;-70
2024/04/19 10:30:58;;;;;;;2.65;1.02;;;;;;;7.54;100.00;99711.66;6578002;21;20263;-71
2024/04/19 10:33:41;;;;;;;1.00;0.70;;;;;;;7.52;100.00;99710.22;6579144;21;20675;-71
2024/04/19 10:36:14;;;;;;;1.65;1.45;;;;;;;7.38;100.00;99706.72;6578962;21;20259;-71
2024/04/19 10:38:50;;;;;;;1.58;1.48;;;;;;;7.38;100.00;99704.88;6579048;21;20541;-70
2024/04/19 10:41:24;;;;;;;1.27;0.95;;;;;;;7.53;100.00;99706.47;6578647;21;20287;-71
2024/04/19 10:43:57;;;;;;;2.85;1.65;;;;;;;7.59;100.00;99695.72;6579391;21;20231;-72
2024/04/19 10:46:33;;;;;;;0.90;0.60;;;;;;;7.75;100.00;99695.22;6580415;21;20265;-70
2024/04/19 10:49:09;;;;;;;1.23;1.13;;;;;;;7.83;100.00;99688.78;6579468;21;20632;-71
2024/04/19 10:51:43;;;;;;;1.00;0.68;;;;;;;7.92;100.00;99683.97;6581600;21;20304;-70
2024/04/19 10:54:18;;;;;;;0.90;0.60;;;;;;;7.85;100.00;99684.81;6581586;21;20267;-71
2024/04/19 10:56:54;;;;;;;1.70;1.05;;;;;;;7.91;100.00;99675.06;6578611;21;20280;-71
2024/04/19 10:59:26;;;;;;;0.90;0.60;;;;;;;7.94;100.00;99665.75;6579793;21;20266;-70
2024/04/19 11:02:01;;;;;;;3.38;1.10;;;;;;;7.89;100.00;99669.06;6579096;21;20751;-71
2024/04/19 11:04:39;;;;;;;1.45;1.05;;;;;;;7.71;100.00;99663.53;6579028;21;20223;-71
2024/04/19 11:07:16;;;;;;;1.00;0.90;;;;;;;7.81;100.00;99658.53;6581404;21;20255;-72
2024/04/19 11:09:50;;;;;;;1.35;1.05;;;;;;;7.69;100.00;99653.00;6579029;21;20350;-70
2024/04/19 11:12:25;;;;;;;6.18;1.88;;;;;;;7.80;100.00;99652.31;6578485;21;20235;-68
2024/04/19 11:15:05;;;;;;;1.17;1.08;;;;;;;7.72;100.00;99643.66;6578719;21;20220;-70
2024/04/19 11:17:37;;;;;;;1.20;1.10;;;;;;;7.72;100.00;99651.75;6578821;21;20714;-70
2024/04/19 11:20:15;;;;;;;0.95;0.70;;;;;;;7.51;100.00;99641.25;6577604;21;20566;-70
2024/04/19 11:22:50;;;;;;;0.95;0.85;;;;;;;7.43;100.00;99648.53;6580689;21;20212;-71
2024/04/19 11:25:24;;;;;;;1.02;0.80;;;;;;;7.02;100.00;99650.69;6578984;21;20329;-70
2024/04/19 11:27:57;;;;;;;1.40;0.65;;;;;;;6.73;100.00;99638.50;6577467;21;20317;-70
2024/04/19 11:30:30;;;;;;;0.98;0.60;;;;;;;6.45;100.00;99646.78;6579886;21;20279;-71
2024/04/19 11:33:05;;;;;;;0.85;0.52;;;;;;;6.27;100.00;99654.63;6579607;21;20235;-70
2024/04/19 11:35:46;;;;;;;1.88;0.75;;;;;;;6.07;100.00;99637.66;6579312;21;20291;-71
2024/04/19 11:38:22;;;;;;;0.90;0.70;;;;;;;6.17;100.00;99642.63;6581603;21;20228;-72
2024/04/19 11:40:56;;;;;;;1.08;0.60;;;;;;;6.19;100.00;99636.03;6577652;21;20239;-71
2024/04/19 11:43:30;;;;;;;1.00;0.80;;;;;;;6.29;100.00;99627.56;6578321;21;20224;-68
2024/04/19 11:46:03;;;;;;;0.90;0.60;;;;;;;6.54;100.00;99621.38;6580277;21;20318;-70
2024/04/19 11:48:37;;;;;;;2.53;0.98;;;;;;;6.54;100.00;99621.38;6578263;21;20228;-69
2024/04/19 11:51:16;;;;;;;0.80;0.55;;;;;;;6.38;100.00;99618.28;6578276;21;20240;-70
2024/04/19 11:53:49;;;;;;;0.90;0.70;;;;;;;6.63;100.00;99618.50;6578501;21;20220;-69
2024/04/19 11:56:23;;;;;;;0.80;0.50;;;;;;;6.70;100.00;99614.75;6580990;21;20537;-70
2024/04/19 11:58:56;;;;;;;0.80;0.50;;;;;;;6.79;100.00;99612.66;6578460;21;20215;-70
2024/04/19 12:01:33;;;;;;;0.80;0.50;;;;;;;6.96;100.00;99603.97;6579027;21;20287;-69
2024/04/19 12:04:11;;;;;;;0.80;0.50;;;;;;;7.09;100.00;99599.59;6575560;21;20242;-69
2024/04/19 12:06:49;;;;;;;1.73;0.60;;;;;;;7.07;100.00;99605.16;6578540;21;20232;-70
2024/04/19 12:09:22;;;;;;;2.45;1.48;;;;;;;7.16;100.00;99597.72;6578436;21;20266;-70
2024/04/19 12:11:58;;;;;;;2.80;1.15;;;;;;;7.31;100.00;99590.22;6579150;21;20236;-72
2024/04/19 12:14:51;;;;;;;1.33;0.60;;;;;;;7.32;100.00;99584.59;6578054;21;20255;-71
2024/04/19 12:17:43;;;;;;;1.08;0.80;;;;;;;7.43;100.00;99591.19;6581825;21;20224;-70
2024/04/19 12:20:16;;;;;;;1.33;0.70;;;;;;;7.46;100.00;99587.22;6586644;21;20306;-70
2024/04/19 12:23:11;;;;;;;1.95;1.27;;;;;;;7.55;100.00;99583.28;6589597;21;20274;-70
2024/04/19 12:25:45;;;;;;;1.95;1.30;;;;;;;7.58;100.00;99580.16;6582376;21;20656;-72
2024/04/19 12:28:23;;;;;;;3.03;0.90;;;;;;;7.51;100.00;99582.03;6582160;21;20709;-69